createdAt,value
2018-03-06T00:29:49.177Z,13.50
2018-03-06T00:32:16.985Z,13.50
2018-03-06T00:34:45.569Z,13.50
2018-03-06T00:37:13.353Z,13.40
2018-03-06T00:39:41.939Z,13.50
2018-03-06T00:42:09.757Z,13.50
2018-03-06T00:44:37.596Z,13.50
2018-03-06T00:47:05.403Z,13.50
2018-03-06T00:49:34.039Z,13.50
2018-03-06T00:52:01.854Z,13.50
2018-03-06T00:54:29.654Z,13.50
2018-03-06T00:56:57.442Z,13.50
2018-03-06T00:59:25.279Z,13.50
2018-03-06T01:01:53.097Z,13.50
2018-03-06T01:04:20.917Z,13.50
2018-03-06T01:06:48.720Z,13.50
2018-03-06T01:09:16.531Z,13.50
2018-03-06T01:11:44.359Z,13.50
2018-03-06T01:14:12.169Z,13.60
2018-03-06T01:16:39.966Z,13.60
2018-03-06T01:19:07.778Z,13.60
2018-03-06T01:21:36.383Z,13.60
2018-03-06T01:24:04.174Z,13.50
2018-03-06T01:26:31.965Z,13.60
2018-03-06T01:28:59.766Z,13.60
2018-03-06T01:31:27.586Z,13.60
2018-03-06T01:33:55.367Z,13.50
2018-03-06T01:36:23.191Z,13.50
2018-03-06T01:38:51.018Z,13.50
2018-03-06T01:41:19.694Z,13.50
2018-03-06T01:43:47.488Z,13.50
2018-03-06T01:46:16.049Z,13.50
2018-03-06T01:48:43.874Z,13.50
2018-03-06T01:51:11.713Z,13.40
2018-03-06T01:53:39.524Z,13.40
2018-03-06T01:56:07.321Z,13.40
2018-03-06T01:58:35.173Z,13.40
2018-03-06T02:01:02.990Z,13.40
2018-03-06T02:03:30.797Z,13.40
2018-03-06T02:05:58.598Z,13.40
2018-03-06T02:08:26.427Z,13.40
2018-03-06T02:10:54.224Z,13.40
2018-03-06T02:13:22.030Z,13.40
2018-03-06T02:15:50.001Z,13.40
2018-03-06T02:18:18.613Z,13.30
2018-03-06T02:20:47.221Z,13.40
2018-03-06T02:23:15.765Z,13.40
2018-03-06T02:25:43.562Z,13.40
2018-03-06T02:28:12.126Z,13.30
2018-03-06T02:30:40.781Z,13.30
2018-03-06T02:33:08.590Z,13.30
2018-03-06T02:35:37.137Z,13.30
2018-03-06T02:38:04.933Z,13.30
2018-03-06T02:40:33.502Z,13.30
2018-03-06T02:43:02.095Z,13.30
2018-03-06T02:45:29.902Z,13.30
2018-03-06T02:47:57.713Z,13.30
2018-03-06T02:50:25.506Z,13.30
2018-03-06T02:52:53.357Z,13.20
2018-03-06T02:55:21.188Z,13.30
2018-03-06T02:57:48.993Z,13.30
2018-03-06T03:00:17.553Z,13.20
2018-03-06T03:02:45.356Z,13.20
2018-03-06T03:05:13.214Z,13.20
2018-03-06T03:07:41.101Z,13.30
2018-03-06T03:10:08.956Z,13.20
2018-03-06T03:12:36.753Z,13.20
2018-03-06T03:15:04.547Z,13.20
2018-03-06T03:17:33.129Z,13.10
2018-03-06T03:20:01.714Z,13.10
2018-03-06T03:22:29.519Z,13.10
2018-03-06T03:24:57.325Z,13.00
2018-03-06T03:27:25.138Z,13.00
2018-03-06T03:29:52.949Z,13.00
2018-03-06T03:32:20.733Z,13.00
2018-03-06T03:34:48.537Z,12.90
2018-03-06T03:37:16.377Z,12.90
2018-03-06T03:39:44.945Z,12.80
2018-03-06T03:42:12.775Z,12.80
2018-03-06T03:44:40.582Z,12.80
2018-03-06T03:47:09.151Z,12.90
2018-03-06T03:49:36.951Z,12.80
2018-03-06T03:52:04.780Z,12.80
2018-03-06T03:54:32.594Z,12.80
2018-03-06T03:57:00.413Z,12.80
2018-03-06T03:59:28.214Z,12.80
2018-03-06T04:01:56.050Z,12.80
2018-03-06T04:04:24.634Z,12.80
2018-03-06T04:06:52.417Z,12.80
2018-03-06T04:09:21.008Z,12.80
2018-03-06T04:11:48.795Z,12.80
2018-03-06T04:14:16.581Z,12.80
2018-03-06T04:16:44.444Z,12.90
2018-03-06T04:19:12.996Z,12.80
2018-03-06T04:21:41.577Z,12.80
2018-03-06T04:24:09.402Z,12.80
2018-03-06T04:26:37.230Z,12.80
2018-03-06T04:29:05.033Z,12.80
2018-03-06T04:31:32.829Z,12.70
2018-03-06T04:34:00.618Z,12.70
2018-03-06T04:36:28.425Z,12.70
2018-03-06T04:38:56.208Z,12.70
2018-03-06T04:41:24.766Z,12.70
2018-03-06T04:43:52.578Z,12.60
2018-03-06T04:46:20.417Z,12.60
2018-03-06T04:48:48.212Z,12.60
2018-03-06T04:51:16.053Z,12.70
2018-03-06T04:53:43.863Z,12.70
2018-03-06T04:56:11.674Z,12.70
2018-03-06T04:58:39.482Z,12.70
2018-03-06T05:01:07.291Z,12.70
2018-03-06T05:03:35.874Z,12.70
2018-03-06T05:06:04.505Z,12.70
2018-03-06T05:08:32.360Z,12.70
2018-03-06T05:11:00.181Z,12.70
2018-03-06T05:13:28.007Z,12.70
2018-03-06T05:15:55.822Z,12.70
2018-03-06T05:18:24.397Z,12.70
2018-03-06T05:20:53.172Z,12.60
2018-03-06T05:23:20.993Z,12.60
2018-03-06T05:25:48.783Z,12.60
2018-03-06T05:28:16.601Z,12.60
2018-03-06T05:30:45.149Z,12.60
2018-03-06T05:33:12.961Z,12.60
2018-03-06T05:35:40.801Z,12.60
2018-03-06T05:38:08.638Z,12.60
2018-03-06T05:40:36.455Z,12.50
2018-03-06T05:43:04.273Z,12.50
2018-03-06T05:45:32.113Z,12.50
2018-03-06T05:47:59.918Z,12.40
2018-03-06T05:50:27.710Z,12.40
2018-03-06T05:52:56.273Z,12.40
2018-03-06T05:55:24.870Z,12.40
2018-03-06T05:57:52.696Z,12.40
2018-03-06T06:00:20.636Z,12.40
2018-03-06T06:02:48.433Z,12.40
2018-03-06T06:05:16.225Z,12.40
2018-03-06T06:07:44.805Z,12.30
2018-03-06T06:10:13.390Z,12.30
2018-03-06T06:12:41.243Z,12.30
2018-03-06T06:15:09.053Z,12.30
2018-03-06T06:17:37.593Z,12.30
2018-03-06T06:20:05.370Z,12.20
2018-03-06T06:22:33.167Z,12.20
2018-03-06T06:25:01.730Z,12.20
2018-03-06T06:27:29.502Z,12.20
2018-03-06T06:29:58.056Z,12.20
2018-03-06T06:32:25.879Z,12.10
2018-03-06T06:34:54.481Z,12.20
2018-03-06T06:37:22.312Z,12.20
2018-03-06T06:39:50.097Z,12.10
2018-03-06T06:42:17.914Z,12.20
2018-03-06T06:44:45.683Z,12.10
2018-03-06T06:47:14.254Z,12.10
2018-03-06T06:49:42.038Z,12.10
2018-03-06T06:52:09.826Z,12.10
2018-03-06T06:54:37.626Z,12.10
2018-03-06T06:57:05.457Z,12.10
2018-03-06T06:59:33.986Z,12.20
2018-03-06T07:02:01.866Z,12.20
2018-03-06T07:04:29.650Z,12.10
2018-03-06T07:06:58.218Z,12.20
2018-03-06T07:09:26.015Z,12.10
2018-03-06T07:11:54.635Z,12.10
2018-03-06T07:14:22.488Z,12.10
2018-03-06T07:16:50.277Z,12.20
2018-03-06T07:19:18.050Z,12.20
2018-03-06T07:21:45.825Z,12.20
2018-03-06T07:26:58.726Z,12.20
2018-03-06T07:29:26.538Z,12.30
2018-03-06T07:31:54.314Z,12.30
2018-03-06T07:34:22.931Z,12.30
2018-03-06T07:36:50.766Z,12.30
2018-03-06T07:39:18.528Z,12.40
2018-03-06T07:41:46.385Z,12.40
2018-03-06T07:44:14.157Z,12.40
2018-03-06T07:46:42.693Z,12.40
2018-03-06T07:49:10.506Z,12.40
2018-03-06T07:51:39.080Z,12.50
2018-03-06T07:54:07.689Z,12.60
2018-03-06T07:56:35.487Z,12.50
2018-03-06T07:59:03.318Z,12.60
2018-03-06T08:01:31.162Z,12.60
2018-03-06T08:03:59.748Z,12.70
2018-03-06T08:06:28.361Z,12.80
2018-03-06T08:08:56.918Z,12.90
2018-03-06T08:11:24.715Z,12.90
2018-03-06T08:13:52.651Z,13.00
2018-03-06T08:16:21.528Z,13.20
2018-03-06T08:18:50.072Z,13.30
2018-03-06T08:21:17.865Z,13.30
2018-03-06T08:23:46.346Z,13.40
2018-03-06T08:26:15.778Z,13.50
2018-03-06T08:28:44.557Z,13.50
2018-03-06T08:31:13.140Z,13.70
2018-03-06T08:33:41.689Z,13.80
2018-03-06T08:36:09.510Z,13.70
2018-03-06T08:38:38.194Z,13.80
2018-03-06T08:41:07.009Z,13.90
2018-03-06T08:43:34.798Z,14.00
2018-03-06T08:46:02.594Z,14.10
2018-03-06T08:48:31.960Z,14.10
2018-03-06T08:50:59.822Z,14.10
2018-03-06T08:53:27.619Z,14.30
2018-03-06T08:55:56.191Z,14.30
2018-03-06T08:58:24.791Z,14.40
2018-03-06T09:00:53.399Z,14.50
2018-03-06T09:03:21.237Z,14.50
2018-03-06T09:05:49.061Z,14.60
2018-03-06T09:08:16.860Z,14.60
2018-03-06T09:10:46.209Z,14.80
2018-03-06T09:13:14.030Z,14.80
2018-03-06T09:15:42.569Z,15.00
2018-03-06T09:18:10.418Z,15.00
2018-03-06T09:20:38.208Z,15.10
2018-03-06T09:23:06.010Z,15.20
2018-03-06T09:25:34.596Z,15.30
2018-03-06T09:28:03.175Z,15.50
2018-03-06T09:30:31.758Z,15.60
2018-03-06T09:33:00.393Z,15.70
2018-03-06T09:35:28.194Z,15.70
2018-03-06T09:37:56.817Z,16.00
2018-03-06T09:40:24.617Z,15.90
2018-03-06T09:42:52.394Z,16.00
2018-03-06T09:45:20.206Z,16.10
2018-03-06T09:47:48.011Z,16.20
2018-03-06T09:50:15.847Z,16.30
2018-03-06T09:52:43.637Z,16.40
2018-03-06T09:55:11.438Z,16.40
2018-03-06T09:57:40.023Z,16.40
2018-03-06T10:00:08.570Z,16.50
2018-03-06T10:02:36.352Z,16.40
2018-03-06T10:05:04.157Z,16.50
2018-03-06T10:07:31.948Z,16.50
2018-03-06T10:09:59.739Z,16.50
2018-03-06T10:12:27.555Z,16.60
2018-03-06T10:14:57.346Z,16.60
2018-03-06T10:17:25.914Z,16.60
2018-03-06T10:19:53.715Z,16.60
2018-03-06T10:22:21.519Z,16.60
2018-03-06T10:24:49.314Z,16.50
2018-03-06T10:27:17.114Z,16.40
2018-03-06T10:29:44.915Z,16.30
2018-03-06T10:32:12.710Z,16.30
2018-03-06T10:34:41.294Z,16.40
2018-03-06T10:37:09.844Z,16.40
2018-03-06T10:39:38.429Z,16.40
2018-03-06T10:42:06.234Z,16.40
2018-03-06T10:44:34.799Z,16.50
2018-03-06T10:47:03.377Z,16.60
2018-03-06T10:49:31.937Z,16.60
2018-03-06T10:51:59.798Z,16.60
2018-03-06T10:54:27.584Z,16.70
2018-03-06T10:56:55.373Z,16.70
2018-03-06T10:59:23.910Z,16.80
2018-03-06T11:01:57.547Z,16.70
2018-03-06T11:04:26.142Z,16.90
2018-03-06T11:06:54.695Z,16.90
2018-03-06T11:09:22.508Z,16.90
2018-03-06T11:11:50.286Z,16.90
2018-03-06T11:14:18.107Z,16.80
2018-03-06T11:16:45.918Z,16.80
2018-03-06T11:19:13.697Z,16.70
2018-03-06T11:21:43.025Z,16.70
2018-03-06T11:24:11.064Z,16.70
2018-03-06T11:26:38.848Z,16.70
2018-03-06T11:29:06.662Z,16.80
2018-03-06T11:31:34.451Z,16.80
2018-03-06T11:34:02.251Z,16.90
2018-03-06T11:36:30.093Z,17.00
2018-03-06T11:38:57.889Z,17.00
2018-03-06T11:41:26.438Z,17.20
2018-03-06T11:43:54.221Z,17.10
2018-03-06T11:46:22.015Z,17.20
2018-03-06T11:48:50.557Z,17.40
2018-03-06T11:51:18.349Z,17.40
2018-03-06T11:53:46.928Z,17.50
2018-03-06T11:56:15.488Z,17.40
2018-03-06T11:58:43.274Z,17.40
2018-03-06T12:01:11.070Z,17.40
2018-03-06T12:03:38.857Z,17.30
2018-03-06T12:06:06.677Z,17.30
2018-03-06T12:08:35.259Z,17.20
2018-03-06T12:11:03.931Z,17.40
2018-03-06T12:13:31.714Z,17.40
2018-03-06T12:16:00.406Z,17.40
2018-03-06T12:18:29.008Z,17.30
2018-03-06T12:20:56.802Z,17.30
2018-03-06T12:23:24.606Z,17.30
2018-03-06T12:25:53.171Z,17.20
2018-03-06T12:28:21.036Z,17.20
2018-03-06T12:30:48.821Z,17.20
2018-03-06T12:33:17.378Z,17.30
2018-03-06T12:35:45.231Z,17.30
2018-03-06T12:38:13.044Z,17.30
2018-03-06T12:40:41.598Z,17.30
2018-03-06T12:43:09.455Z,17.30
2018-03-06T12:45:37.270Z,17.40
2018-03-06T12:48:05.110Z,17.40
2018-03-06T12:50:33.658Z,17.60
2018-03-06T12:53:01.514Z,17.60
2018-03-06T12:55:29.361Z,17.70
2018-03-06T12:57:57.157Z,17.70
2018-03-06T13:00:24.953Z,17.90
2018-03-06T13:02:53.686Z,18.00
2018-03-06T13:05:21.458Z,17.90
2018-03-06T13:07:49.283Z,17.90
2018-03-06T13:10:17.865Z,17.80
2018-03-06T13:12:45.672Z,17.70
2018-03-06T13:15:13.449Z,17.70
2018-03-06T13:17:41.257Z,17.70
2018-03-06T13:20:09.126Z,17.70
2018-03-06T13:22:36.949Z,17.70
2018-03-06T13:25:04.741Z,17.70
2018-03-06T13:27:33.288Z,17.90
2018-03-06T13:30:01.151Z,17.90
2018-03-06T13:32:28.938Z,18.00
2018-03-06T13:34:57.521Z,18.10
2018-03-06T13:37:25.294Z,18.10
2018-03-06T13:39:53.113Z,18.10
2018-03-06T13:42:20.923Z,18.10
2018-03-06T13:44:49.481Z,18.00
2018-03-06T13:47:17.265Z,18.00
2018-03-06T13:49:45.039Z,18.00
2018-03-06T13:52:13.729Z,17.90
2018-03-06T13:54:41.562Z,17.90
2018-03-06T13:57:09.364Z,18.00
2018-03-06T13:59:37.969Z,18.00
2018-03-06T14:02:05.822Z,18.00
2018-03-06T14:04:33.681Z,18.10
2018-03-06T14:07:02.262Z,18.00
2018-03-06T14:09:30.850Z,18.00
2018-03-06T14:11:59.422Z,17.80
2018-03-06T14:14:27.973Z,17.70
2018-03-06T14:16:55.799Z,17.70
2018-03-06T14:19:23.683Z,17.70
2018-03-06T14:21:51.466Z,17.80
2018-03-06T14:24:19.249Z,17.70
2018-03-06T14:26:47.037Z,17.70
2018-03-06T14:29:15.603Z,17.70
2018-03-06T14:31:43.428Z,17.70
2018-03-06T14:34:11.240Z,17.70
2018-03-06T14:36:39.883Z,17.50
2018-03-06T14:39:07.690Z,17.50
2018-03-06T14:41:36.242Z,17.30
2018-03-06T14:44:04.035Z,17.30
2018-03-06T14:46:32.597Z,17.30
2018-03-06T14:49:00.390Z,17.30
2018-03-06T14:51:29.021Z,17.20
2018-03-06T14:53:56.825Z,17.20
2018-03-06T14:56:25.386Z,17.20
2018-03-06T14:58:53.161Z,17.20
2018-03-06T15:01:21.738Z,17.20
2018-03-06T15:03:49.546Z,17.20
2018-03-06T15:06:18.090Z,17.00
2018-03-06T15:08:45.880Z,17.00
2018-03-06T15:11:14.529Z,17.00
2018-03-06T15:13:42.335Z,17.00
2018-03-06T15:16:10.958Z,16.90
2018-03-06T15:18:38.746Z,16.90
2018-03-06T15:21:06.542Z,16.80
2018-03-06T15:23:35.097Z,16.80
2018-03-06T15:26:02.894Z,16.80
2018-03-06T15:28:31.454Z,16.80
2018-03-06T15:30:59.314Z,16.80
2018-03-06T15:33:27.137Z,16.80
2018-03-06T15:35:54.970Z,16.80
2018-03-06T15:38:23.558Z,16.70
2018-03-06T15:40:51.355Z,16.70
2018-03-06T15:43:19.318Z,16.70
2018-03-06T15:45:47.260Z,16.60
2018-03-06T15:48:15.696Z,16.60
2018-03-06T15:50:44.165Z,16.70
2018-03-06T15:53:11.959Z,16.70
2018-03-06T15:55:39.829Z,16.70
2018-03-06T15:58:07.702Z,16.70
2018-03-06T16:00:35.542Z,16.70
2018-03-06T16:03:03.322Z,16.60
2018-03-06T16:05:31.389Z,16.60
2018-03-06T16:08:00.016Z,16.60
2018-03-06T16:10:27.943Z,16.50
2018-03-06T16:12:57.265Z,16.40
2018-03-06T16:15:25.850Z,16.50
2018-03-06T16:17:54.399Z,16.50
2018-03-06T16:20:22.194Z,16.40
2018-03-06T16:22:50.746Z,16.40
2018-03-06T16:25:18.539Z,16.40
2018-03-06T16:27:47.110Z,16.40
2018-03-06T16:30:14.900Z,16.40
2018-03-06T16:32:42.675Z,16.40
2018-03-06T16:35:10.493Z,16.40
2018-03-06T16:37:38.294Z,16.40
2018-03-06T16:40:06.103Z,16.30
2018-03-06T16:42:33.955Z,16.30
2018-03-06T16:45:01.748Z,16.30
2018-03-06T16:47:29.595Z,16.30
2018-03-06T16:49:57.689Z,16.30
2018-03-06T16:52:25.523Z,16.30
2018-03-06T16:54:53.294Z,16.30
2018-03-06T16:57:21.179Z,16.30
2018-03-06T16:59:49.001Z,16.30
2018-03-06T17:02:17.123Z,16.20
2018-03-06T17:04:45.163Z,16.20
2018-03-06T17:07:12.914Z,16.10
2018-03-06T17:09:41.226Z,16.10
2018-03-06T17:12:09.687Z,16.10
2018-03-06T17:14:37.467Z,16.10
2018-03-06T17:17:05.253Z,16.10
2018-03-06T17:19:33.165Z,16.00
2018-03-06T17:22:01.028Z,16.00
2018-03-06T17:24:28.946Z,16.00
2018-03-06T17:26:56.736Z,16.00
2018-03-06T17:29:25.318Z,16.10
2018-03-06T17:31:54.718Z,16.00
2018-03-06T17:34:23.263Z,16.00
2018-03-06T17:36:51.094Z,16.00
2018-03-06T17:39:18.883Z,16.00
2018-03-06T17:41:46.690Z,16.00
2018-03-06T17:44:15.283Z,16.00
2018-03-06T17:46:43.970Z,16.00
2018-03-06T17:49:12.526Z,16.00
2018-03-06T17:51:40.339Z,15.90
2018-03-06T17:54:08.190Z,16.00
2018-03-06T17:56:35.974Z,15.90
2018-03-06T17:59:03.777Z,15.90
2018-03-06T18:01:31.604Z,15.90
2018-03-06T18:03:59.426Z,15.90
2018-03-06T18:06:27.202Z,15.90
2018-03-06T18:08:55.752Z,15.80
2018-03-06T18:11:23.535Z,15.90
2018-03-06T18:13:52.172Z,15.80
2018-03-06T18:16:19.996Z,15.80
2018-03-06T18:18:49.595Z,15.80
2018-03-06T18:21:17.411Z,15.80
2018-03-06T18:23:45.210Z,15.80
2018-03-06T18:26:13.046Z,15.80
2018-03-06T18:28:40.855Z,15.80
2018-03-06T18:31:09.450Z,15.80
2018-03-06T18:33:38.279Z,15.80
2018-03-06T18:36:06.082Z,15.90
2018-03-06T18:38:33.940Z,15.90
2018-03-06T18:41:01.785Z,15.90
2018-03-06T18:43:29.618Z,15.90
2018-03-06T18:45:57.412Z,15.90
2018-03-06T18:48:25.195Z,15.90
2018-03-06T18:51:04.629Z,15.90
2018-03-06T18:53:33.083Z,15.90
2018-03-06T18:56:00.877Z,15.90
2018-03-06T18:58:28.680Z,15.90
2018-03-06T19:01:19.874Z,15.90
2018-03-06T19:03:59.343Z,15.90
2018-03-06T19:06:33.743Z,15.90
2018-03-06T19:09:01.539Z,15.90
2018-03-06T19:11:29.394Z,15.90
2018-03-06T19:13:57.864Z,15.90
2018-03-06T19:16:25.702Z,15.90
2018-03-06T19:18:53.487Z,15.90
2018-03-06T19:21:22.078Z,16.00
2018-03-06T19:23:51.258Z,16.00
2018-03-06T19:26:19.963Z,16.00
2018-03-06T19:28:47.829Z,16.00
2018-03-06T19:31:15.696Z,16.00
2018-03-06T19:33:43.517Z,16.00
2018-03-06T19:36:11.329Z,16.00
2018-03-06T19:38:39.133Z,16.00
2018-03-06T19:41:06.969Z,16.00
2018-03-06T19:43:34.782Z,16.00
2018-03-06T19:46:02.583Z,16.00
2018-03-06T19:48:30.400Z,16.00
2018-03-06T19:50:59.150Z,16.10
2018-03-06T19:53:27.370Z,16.00
2018-03-06T19:55:55.181Z,16.10
2018-03-06T19:58:23.119Z,16.10
2018-03-06T20:00:50.903Z,16.10
2018-03-06T20:03:20.226Z,16.10
2018-03-06T20:05:48.058Z,16.10
2018-03-06T20:08:16.691Z,16.10
2018-03-06T20:10:44.519Z,16.10
2018-03-06T20:13:13.077Z,16.10
2018-03-06T20:15:40.871Z,16.10
2018-03-06T20:18:08.686Z,16.10
2018-03-06T20:20:36.482Z,16.10
2018-03-06T20:23:05.082Z,16.10
2018-03-06T20:25:39.158Z,16.10
2018-03-06T20:28:06.970Z,16.10
2018-03-06T20:30:40.369Z,16.10
2018-03-06T20:33:19.544Z,16.10
2018-03-06T20:35:47.704Z,16.10
2018-03-06T20:38:21.082Z,16.10
2018-03-06T20:40:48.937Z,16.10
2018-03-06T20:43:17.498Z,16.10
2018-03-06T20:45:51.864Z,16.10
2018-03-06T20:48:20.010Z,16.10
2018-03-06T20:50:47.813Z,16.10
2018-03-06T20:53:21.167Z,16.10
2018-03-06T20:55:48.994Z,16.10
2018-03-06T20:58:17.578Z,16.10
2018-03-06T21:00:45.461Z,16.10
2018-03-06T21:03:14.046Z,16.10
2018-03-06T21:05:42.586Z,16.10
2018-03-06T21:08:10.406Z,16.10
2018-03-06T21:10:39.476Z,16.10
2018-03-06T21:13:08.024Z,16.00
2018-03-06T21:15:35.884Z,16.00
2018-03-06T21:18:03.710Z,16.00
2018-03-06T21:20:32.254Z,16.10
2018-03-06T21:23:00.042Z,16.10
2018-03-06T21:25:28.621Z,16.00
2018-03-06T21:27:57.283Z,16.00
2018-03-06T21:30:25.351Z,16.00
2018-03-06T21:32:53.138Z,16.00
2018-03-06T21:35:21.035Z,16.00
2018-03-06T21:37:48.939Z,15.90
2018-03-06T21:40:16.822Z,16.00
2018-03-06T21:42:44.977Z,16.00
2018-03-06T21:45:12.745Z,15.90
2018-03-06T21:47:40.526Z,16.00
2018-03-06T21:50:09.542Z,16.00
2018-03-06T21:52:37.375Z,15.90
2018-03-06T21:55:05.955Z,16.00
2018-03-06T21:57:33.752Z,15.90
2018-03-06T22:00:02.298Z,15.90
2018-03-06T22:02:30.098Z,15.90
2018-03-06T22:04:58.648Z,15.90
2018-03-06T22:07:26.420Z,15.90
2018-03-06T22:09:54.203Z,15.90
2018-03-06T22:12:22.801Z,15.90
2018-03-06T22:14:51.342Z,15.90
2018-03-06T22:17:19.150Z,15.90
2018-03-06T22:19:47.734Z,15.90
2018-03-06T22:22:16.266Z,15.90
2018-03-06T22:24:44.031Z,15.90
2018-03-06T22:27:11.802Z,15.90
2018-03-06T22:29:39.655Z,15.90
2018-03-06T22:32:07.413Z,15.90
2018-03-06T22:34:35.196Z,15.90
2018-03-06T22:37:03.001Z,15.90
2018-03-06T22:39:31.650Z,15.90
2018-03-06T22:41:59.445Z,15.90
2018-03-06T22:44:28.032Z,15.90
2018-03-06T22:46:56.579Z,15.80
2018-03-06T22:49:24.393Z,15.80
2018-03-06T22:51:52.168Z,15.80
2018-03-06T22:54:19.977Z,15.90
2018-03-06T22:56:47.884Z,15.90
2018-03-06T22:59:15.690Z,15.90
2018-03-06T23:01:43.480Z,15.80
2018-03-06T23:04:11.255Z,15.80
2018-03-06T23:06:39.799Z,15.80
2018-03-06T23:09:07.671Z,15.80
2018-03-06T23:11:35.439Z,15.80
2018-03-06T23:14:03.232Z,15.80
2018-03-06T23:16:31.794Z,15.80
2018-03-06T23:18:59.587Z,15.80
2018-03-06T23:21:28.214Z,15.80
2018-03-06T23:23:55.993Z,15.70
2018-03-06T23:26:23.773Z,15.80
2018-03-06T23:28:51.549Z,15.80
2018-03-06T23:31:19.345Z,15.80
2018-03-06T23:33:47.121Z,15.70
2018-03-06T23:36:14.951Z,15.80
2018-03-06T23:38:43.517Z,15.70
2018-03-06T23:41:11.295Z,15.70
2018-03-06T23:43:39.860Z,15.70
2018-03-06T23:46:07.682Z,15.70
2018-03-06T23:48:35.474Z,15.60
2018-03-06T23:51:03.237Z,15.60
2018-03-06T23:53:31.017Z,15.60
2018-03-06T23:55:58.888Z,15.60
2018-03-06T23:58:26.657Z,15.60
